Aeroporto :
LOGIN :

Iscrizione | Disclaimer

   EN    FR    IT 

 










Sommario :    VFR   VFR Marginale   IFR   IFR Intensivo   IFR Molto Intensivo
Visibilità : 
Base nubi : 
>= 8 km
>= 3000ft
5 / 8 km
1000 / 3000 ft
1500m / 5 km
500 / 1000 ft
800 / 1500m
200 / 500 ft
< 800m
< 200 ft
Simboli :   Temporali  Nebbia  Neve Forte  Precipitazioni Forti  Vento > 20 kt
SIGMETs :   Varie  Temporali  Ghiacco  Turbolenza  Onda orograficha  Ceneri Vulcaniche






- Altitudine del aeroporto : 1649 ft
- Codice IATA : HHN


EDFH - Frankfurt-Hahn Rhineland-Palatinate

ULTIMO METAR :
  • 060950Z 24012KT 210V270 7000 BKN002 02/02 Q1016

METARs OBSOLETI :
  • 060920Z 24010KT 210V280 4000 BR BKN002 01/01 Q1016
  • 060850Z 25008KT 210V270 2000 BR BKN001 00/00 Q1016
  • 060820Z 25010KT 3000 BR BKN001 M00/M00 Q1016
  • 060750Z 24010KT 4500 BR BKN003 M01/M01 Q1016
  • 060720Z 24007KT 210V280 7000 BKN005 M02/M02 Q1016

TAF AMD TAF EDFH
Valido dal 06 a 08 ore il 07 a 06 ore UTC


060837Z 0608/0706 24012KT 7000 BKN005
TEMPO 0608/0611 1200 BR BKN001
TEMPO 0610/0615 24015G25KT
TEMPO 0612/0706 1500 RA BKN003
PROB30
TEMPO 0612/0615 FZRA
BECMG 0615/0617 24015G25KT
TEMPO 0700/0706 26020G30KT



MetMap, La meteo Aeronautica in un colpo d'occhio ! - Copyright ORBIFLY Dicembre 2007 - Disclaimer

ORBIFLY MET'MAP TEAM :

Programmazione e sviluppo : Alexandra Zaïnal
Concezione : Baudouin d'Aumeries
Aiuto per la programmazione : Marc-Olivier Méhu
Supporto tecnico e logistico : Manuel Goepfert
Aiuto per la traduzione : Arnaldo La Scala

Contatto : metmap@orbifly.com




FONTI E CREDITI :

   NOAA